Hauptseite
METAR-TAF:

METAR-TAF

Flughäfen :

Fliegerhorst Hohn

Hohn, Deutschland

Breite: 54-19N, Länge: 009-32E, Höhe: 12 m

Beobachtung

Neuester Wetterbericht von vor 39 Minuten, um 08:20 UTC
Wind 10 kt aus West
Temperatur 5°C
Luftfeuchtigkeit 87%
Luftdruck 1029 hPa
Sichtweite: 8000 m
Durchbrochene Bewölkung in der Höhe von 500 ft

METAR: ETNH 260820Z 27010KT 8000 BKN005 05/03 Q1029 YLO BLU+ TEMPO YLO

Zeit: 09:59 (08:59 UTC)

Prognose

Neuester Wetterbericht von vor 34 Minuten, um 08:25 UTC
Gültige Prognose vom 26 um 08 UTC bis 26 um 18 UTC
Wind 10 kt aus West
Sichtweite 10 km oder mehr
Leicht bewölkt in der Höhe von 17000 ft
Zeitweise
vom 26 um 08 UTC bis 26 um 12 UTC
Wind 13 kt aus West/Nordwest, Böen bis zu 23 kt
Sichtweite: 8000 m
Durchbrochene Bewölkung in der Höhe von 500 ft

TAF: ETNH 260825Z 2608/2618 28010KT 9999 NSW FEW170 TEMPO 2608/2612 29013G23KT 8000 NSW BKN005 BY ETGL

Wetterbeobachtungen und Prognosen von mehr als 4000 Flughäfen (METAR und TAF Bericht).

Die verfügbaren Stationen werden durch gelbe und rote Markierungen auf der Karte dargestellt.

Führen Sie die Maus auf sie, um den Namen der Station zu sehen.

Darauf klicken, um die Beobachtung von Wetterbeobachtungen und Prognosen zu sehen.

Um die Karte zu ändern : klicken Sie auf den grünen Tasten mit einem schwarzen Kreuz Zum Vergrößern, auf den grünen Button mit einem Gedankenstrich zu verkleinern, oder auf die grünen Pfeile für benachbarte Karten.


METAR-TAF: